createdAt,value
2018-10-21T00:01:20.716Z,15.03
2018-10-21T00:03:48.095Z,16.73
2018-10-21T00:06:15.403Z,14.03
2018-10-21T00:08:42.791Z,14.90
2018-10-21T00:11:10.072Z,16.00
2018-10-21T00:13:37.375Z,20.13
2018-10-21T00:16:04.813Z,15.93
2018-10-21T00:18:32.096Z,11.97
2018-10-21T00:20:59.425Z,20.70
2018-10-21T00:23:26.862Z,18.27
2018-10-21T00:25:54.184Z,13.53
2018-10-21T00:28:21.494Z,14.07
2018-10-21T00:30:48.903Z,12.50
2018-10-21T00:33:16.327Z,12.30
2018-10-21T00:35:43.552Z,17.00
2018-10-21T00:38:10.940Z,14.73
2018-10-21T00:40:38.226Z,16.03
2018-10-21T00:43:05.518Z,18.17
2018-10-21T00:45:32.934Z,15.73
2018-10-21T00:48:00.255Z,16.03
2018-10-21T00:50:27.523Z,19.67
2018-10-21T00:52:54.964Z,31.27
2018-10-21T00:55:22.243Z,14.90
2018-10-21T00:57:49.775Z,20.43
2018-10-21T01:00:17.085Z,20.80
2018-10-21T01:02:44.412Z,25.17
2018-10-21T01:05:11.721Z,16.77
2018-10-21T01:07:39.257Z,24.50
2018-10-21T01:10:08.233Z,27.10
2018-10-21T01:12:35.544Z,31.70
2018-10-21T01:15:03.138Z,36.90
2018-10-21T01:17:30.467Z,32.83
2018-10-21T01:19:57.779Z,42.90
2018-10-21T01:22:25.228Z,29.97
2018-10-21T01:24:52.500Z,39.80
2018-10-21T01:27:19.943Z,39.77
2018-10-21T01:29:47.659Z,45.53
2018-10-21T01:32:16.522Z,46.67
2018-10-21T01:34:43.812Z,45.03
2018-10-21T01:37:11.138Z,39.27
2018-10-21T01:40:51.456Z,33.47
2018-10-21T01:43:21.097Z,38.47
2018-10-21T01:45:48.475Z,42.90
2018-10-21T01:48:16.898Z,44.53
2018-10-21T01:50:44.323Z,37.90
2018-10-21T01:53:12.563Z,52.67
2018-10-21T01:55:39.869Z,46.93
2018-10-21T01:58:07.479Z,37.70
2018-10-21T02:00:35.165Z,36.67
2018-10-21T02:03:02.865Z,41.80
2018-10-21T02:05:30.603Z,44.10
2018-10-21T02:07:57.951Z,39.27
2018-10-21T02:10:25.315Z,42.13
2018-10-21T02:12:52.727Z,37.27
2018-10-21T02:15:20.049Z,40.27
2018-10-21T02:17:47.351Z,37.30
2018-10-21T02:20:15.604Z,37.53
2018-10-21T02:22:43.747Z,40.07
2018-10-21T02:25:11.075Z,45.17
2018-10-21T02:27:39.405Z,43.37
2018-10-21T02:30:09.325Z,39.77
2018-10-21T02:32:36.637Z,34.93
2018-10-21T02:35:04.989Z,47.13
2018-10-21T02:37:32.311Z,35.13
2018-10-21T02:39:59.645Z,32.50
2018-10-21T02:42:27.134Z,36.70
2018-10-21T02:44:54.439Z,34.47
2018-10-21T02:47:21.752Z,43.27
2018-10-21T02:49:49.145Z,35.33
2018-10-21T02:52:16.456Z,36.57
2018-10-21T02:54:43.868Z,34.53
2018-10-21T02:57:12.418Z,35.27
2018-10-21T02:59:39.687Z,34.47
2018-10-21T03:02:07.263Z,26.03
2018-10-21T03:04:34.776Z,35.27
2018-10-21T03:07:02.119Z,31.37
2018-10-21T03:09:29.856Z,39.33
2018-10-21T03:11:57.243Z,33.00
2018-10-21T03:14:24.531Z,37.80
2018-10-21T03:16:51.949Z,28.47
2018-10-21T03:19:19.331Z,36.97
2018-10-21T03:21:46.664Z,36.40
2018-10-21T03:24:13.972Z,35.27
2018-10-21T03:26:41.412Z,36.80
2018-10-21T03:29:08.746Z,34.90
2018-10-21T03:31:36.111Z,23.07
2018-10-21T03:34:03.558Z,33.87
2018-10-21T03:36:30.805Z,29.20
2018-10-21T03:38:58.116Z,28.43
2018-10-21T03:41:25.526Z,39.20
2018-10-21T03:43:52.824Z,43.03
2018-10-21T03:46:20.192Z,55.03
2018-10-21T03:48:47.595Z,44.77
2018-10-21T03:51:14.922Z,48.17
2018-10-21T03:53:42.345Z,43.83
2018-10-21T03:56:09.954Z,37.30
2018-10-21T03:58:37.383Z,34.00
2018-10-21T04:01:05.176Z,37.57
2018-10-21T04:03:32.717Z,47.83
2018-10-21T04:05:59.984Z,29.13
2018-10-21T04:08:27.246Z,36.10
2018-10-21T04:10:54.655Z,44.47
2018-10-21T04:13:21.927Z,44.73
2018-10-21T04:15:49.265Z,43.93
2018-10-21T04:18:16.738Z,39.97
2018-10-21T04:20:44.018Z,48.67
2018-10-21T04:23:11.281Z,34.80
2018-10-21T04:25:39.263Z,38.07
2018-10-21T04:28:07.219Z,42.60
2018-10-21T04:30:36.719Z,46.27
2018-10-21T04:33:08.269Z,43.73
2018-10-21T04:35:35.617Z,52.67
2018-10-21T04:38:25.161Z,46.40
2018-10-21T04:40:52.745Z,39.87
2018-10-21T04:43:20.041Z,37.63
2018-10-21T04:45:47.442Z,40.73
2018-10-21T04:48:14.822Z,38.97
2018-10-21T04:50:42.192Z,28.63
2018-10-21T04:53:09.635Z,33.43
2018-10-21T04:55:36.900Z,43.63
2018-10-21T04:58:04.522Z,45.13
2018-10-21T05:00:31.923Z,38.77
2018-10-21T05:02:59.157Z,34.30
2018-10-21T05:05:26.387Z,42.23
2018-10-21T05:10:29.889Z,44.13
2018-10-21T05:12:57.380Z,30.90
2018-10-21T05:15:25.650Z,45.50
2018-10-21T05:17:53.224Z,50.97
2018-10-21T05:20:20.612Z,41.03
2018-10-21T05:22:47.983Z,43.97
2018-10-21T05:25:15.384Z,39.93
2018-10-21T05:27:42.967Z,51.53
2018-10-21T05:30:11.153Z,51.43
2018-10-21T05:32:38.465Z,49.93
2018-10-21T05:35:07.536Z,64.80
2018-10-21T05:37:34.878Z,57.80
2018-10-21T05:40:02.201Z,49.03
2018-10-21T05:42:29.579Z,51.97
2018-10-21T05:44:57.047Z,51.27
2018-10-21T05:47:24.318Z,52.47
2018-10-21T05:49:51.635Z,55.17
2018-10-21T05:52:18.885Z,50.73
2018-10-21T05:54:46.179Z,50.17
2018-10-21T05:57:13.506Z,46.33
2018-10-21T05:59:40.786Z,56.57
2018-10-21T06:02:08.098Z,54.73
2018-10-21T06:04:35.533Z,47.90
2018-10-21T06:07:02.835Z,55.80
2018-10-21T06:09:30.139Z,52.53
2018-10-21T06:11:57.507Z,48.07
2018-10-21T06:14:24.799Z,45.50
2018-10-21T06:16:56.727Z,43.20
2018-10-21T06:19:28.440Z,38.63
2018-10-21T06:21:55.777Z,42.03
2018-10-21T06:24:23.307Z,53.20
2018-10-21T06:26:50.700Z,43.37
2018-10-21T06:29:18.008Z,50.83
2018-10-21T06:31:45.359Z,43.37
2018-10-21T06:34:12.663Z,43.03
2018-10-21T06:36:40.074Z,43.07
2018-10-21T06:39:08.016Z,48.20
2018-10-21T06:41:35.349Z,41.37
2018-10-21T06:44:02.636Z,40.43
2018-10-21T06:46:29.948Z,35.10
2018-10-21T06:48:57.299Z,35.70
2018-10-21T06:51:24.575Z,33.33
2018-10-21T06:53:51.838Z,34.70
2018-10-21T06:56:19.274Z,30.60
2018-10-21T06:58:46.519Z,40.57
2018-10-21T07:01:13.811Z,38.53
2018-10-21T07:03:41.136Z,35.43
2018-10-21T07:06:10.639Z,28.43
2018-10-21T07:08:37.960Z,28.13
2018-10-21T07:11:05.751Z,31.43
2018-10-21T07:13:33.190Z,34.90
2018-10-21T07:16:00.528Z,29.87
2018-10-21T07:18:28.043Z,32.30
2018-10-21T07:20:55.422Z,25.97
2018-10-21T07:23:22.712Z,24.90
2018-10-21T07:25:50.137Z,26.17
2018-10-21T07:28:17.628Z,19.20
2018-10-21T07:30:44.765Z,15.90
2018-10-21T07:33:12.156Z,21.07
2018-10-21T07:35:39.443Z,23.17
2018-10-21T07:38:06.718Z,16.93
2018-10-21T07:40:34.000Z,17.50
2018-10-21T07:43:01.276Z,18.87
2018-10-21T07:45:28.519Z,28.83
2018-10-21T07:47:55.896Z,16.80
2018-10-21T07:50:23.180Z,19.53
2018-10-21T07:52:50.546Z,17.33
2018-10-21T07:55:18.306Z,15.23
2018-10-21T07:57:46.199Z,17.60
2018-10-21T08:00:13.505Z,21.00
2018-10-21T08:02:40.949Z,19.60
2018-10-21T08:06:16.361Z,20.90
2018-10-21T08:08:43.809Z,19.77
2018-10-21T08:11:11.117Z,14.57
2018-10-21T08:13:38.396Z,19.27
2018-10-21T08:16:05.882Z,13.90
2018-10-21T08:18:33.154Z,16.87
2018-10-21T08:21:00.467Z,13.47
2018-10-21T08:23:27.891Z,13.00
2018-10-21T08:25:55.156Z,17.50
2018-10-21T08:28:22.456Z,14.30
2018-10-21T08:30:49.855Z,16.17
2018-10-21T08:33:17.157Z,14.33
2018-10-21T08:35:44.396Z,12.37
2018-10-21T08:38:11.803Z,15.37
2018-10-21T08:40:39.112Z,12.87
2018-10-21T08:43:06.414Z,15.03
2018-10-21T08:45:33.839Z,14.47
2018-10-21T08:48:01.171Z,14.63
2018-10-21T08:50:28.571Z,11.07
2018-10-21T08:52:56.251Z,13.87
2018-10-21T08:55:23.601Z,8.17
2018-10-21T08:57:50.961Z,14.07
2018-10-21T09:00:19.215Z,14.67
2018-10-21T09:02:46.772Z,11.90
2018-10-21T09:05:16.352Z,9.20
2018-10-21T09:07:44.269Z,9.40
2018-10-21T09:10:12.841Z,10.20
2018-10-21T09:12:40.400Z,11.63
2018-10-21T09:15:10.686Z,8.63
2018-10-21T09:17:38.391Z,11.53
2018-10-21T09:20:12.425Z,15.10
2018-10-21T09:22:39.827Z,11.30
2018-10-21T09:25:08.009Z,7.93
2018-10-21T09:27:35.392Z,10.93
2018-10-21T09:30:03.100Z,11.30
2018-10-21T09:32:30.467Z,11.27
2018-10-21T09:34:57.950Z,15.50
2018-10-21T09:37:25.287Z,11.17
2018-10-21T09:39:52.603Z,9.40
2018-10-21T09:42:20.028Z,9.00
2018-10-21T09:44:47.265Z,10.27
2018-10-21T09:47:17.112Z,8.73
2018-10-21T09:49:47.589Z,9.27
2018-10-21T09:52:14.987Z,9.83
2018-10-21T09:54:42.153Z,11.20
2018-10-21T09:57:09.535Z,8.23
2018-10-21T09:59:36.740Z,10.63
2018-10-21T10:02:09.973Z,10.60
2018-10-21T10:04:38.136Z,7.63
2018-10-21T10:07:05.524Z,11.90
2018-10-21T10:09:32.895Z,12.23
2018-10-21T10:12:00.327Z,10.53
2018-10-21T10:14:27.629Z,11.53
2018-10-21T10:16:55.003Z,10.23
2018-10-21T10:19:22.268Z,9.53
2018-10-21T10:21:49.538Z,9.77
2018-10-21T10:24:16.932Z,12.90
2018-10-21T10:26:44.204Z,9.70
2018-10-21T10:29:11.471Z,8.67
2018-10-21T10:31:38.801Z,7.33
2018-10-21T10:34:06.189Z,10.37
2018-10-21T10:36:33.399Z,10.43
2018-10-21T10:39:00.761Z,11.67
2018-10-21T10:41:28.044Z,11.97
2018-10-21T10:43:55.284Z,9.33
2018-10-21T10:46:22.672Z,8.23
2018-10-21T10:48:49.921Z,7.00
2018-10-21T10:51:17.170Z,9.57
2018-10-21T10:53:44.648Z,8.97
2018-10-21T10:56:11.896Z,10.93
2018-10-21T10:58:39.239Z,11.90
2018-10-21T11:01:06.626Z,10.27
2018-10-21T11:03:36.706Z,10.30
2018-10-21T11:06:04.128Z,7.10
2018-10-21T11:08:31.763Z,11.83
2018-10-21T11:10:59.367Z,12.03
2018-10-21T11:13:26.639Z,12.17
2018-10-21T11:15:54.106Z,11.37
2018-10-21T11:18:21.388Z,11.67
2018-10-21T11:20:48.706Z,14.77
2018-10-21T11:23:22.156Z,10.97
2018-10-21T11:25:49.534Z,9.57
2018-10-21T11:28:16.933Z,12.30
2018-10-21T11:30:44.244Z,10.30
2018-10-21T11:33:12.067Z,12.57
2018-10-21T11:35:39.360Z,10.17
2018-10-21T11:38:06.826Z,10.33
2018-10-21T11:40:34.136Z,11.30
2018-10-21T11:43:01.497Z,11.73
2018-10-21T11:45:28.892Z,14.17
2018-10-21T11:47:56.182Z,8.63
2018-10-21T11:50:23.506Z,13.50
2018-10-21T11:52:50.924Z,12.27
2018-10-21T11:55:18.353Z,19.63
2018-10-21T11:57:45.559Z,11.97
2018-10-21T12:00:13.057Z,9.93
2018-10-21T12:02:40.381Z,11.10
2018-10-21T12:05:07.703Z,9.47
2018-10-21T12:07:35.244Z,13.43
2018-10-21T12:10:02.564Z,14.87
2018-10-21T12:12:29.911Z,7.93
2018-10-21T12:14:57.339Z,12.80
2018-10-21T12:17:24.670Z,7.33
2018-10-21T12:19:52.439Z,8.53
2018-10-21T12:22:19.887Z,10.13
2018-10-21T12:24:47.055Z,11.53
2018-10-21T12:27:14.315Z,9.30
2018-10-21T12:29:41.727Z,7.90
2018-10-21T12:32:08.999Z,12.53
2018-10-21T12:34:36.283Z,14.17
2018-10-21T12:37:03.786Z,10.47
2018-10-21T12:39:31.119Z,11.60
2018-10-21T12:41:58.389Z,11.67
2018-10-21T12:44:25.758Z,8.07
2018-10-21T12:46:53.039Z,9.13
2018-10-21T12:49:20.318Z,7.37
2018-10-21T12:51:47.695Z,15.17
2018-10-21T12:54:15.149Z,9.60
2018-10-21T12:56:42.247Z,12.33
2018-10-21T12:59:09.647Z,9.90
2018-10-21T13:01:36.942Z,7.90
2018-10-21T13:04:04.374Z,9.43
2018-10-21T13:06:31.757Z,7.87
2018-10-21T13:08:59.179Z,7.60
2018-10-21T13:11:26.494Z,17.43
2018-10-21T13:13:54.169Z,9.33
2018-10-21T13:16:21.459Z,9.50
2018-10-21T13:18:48.749Z,9.57
2018-10-21T13:21:16.184Z,10.03
2018-10-21T13:23:43.499Z,11.60
2018-10-21T13:26:10.874Z,9.47
2018-10-21T13:28:38.274Z,9.07
2018-10-21T13:31:05.592Z,12.00
2018-10-21T13:33:33.419Z,13.13
2018-10-21T13:36:00.780Z,14.40
2018-10-21T13:38:28.177Z,10.67
2018-10-21T13:40:55.496Z,7.40
2018-10-21T13:43:22.995Z,7.37
2018-10-21T13:45:50.344Z,7.90
2018-10-21T13:48:17.652Z,9.10
2018-10-21T13:50:45.105Z,12.87
2018-10-21T13:53:12.518Z,13.30
2018-10-21T13:55:39.760Z,7.77
2018-10-21T13:58:07.284Z,12.93
2018-10-21T14:00:34.763Z,8.33
2018-10-21T14:03:01.960Z,9.43
2018-10-21T14:05:29.375Z,10.70
2018-10-21T14:07:56.638Z,8.37
2018-10-21T14:10:23.966Z,8.93
2018-10-21T14:12:51.421Z,13.23
2018-10-21T14:15:18.819Z,10.23
2018-10-21T14:17:46.056Z,12.70
2018-10-21T14:20:13.471Z,9.70
2018-10-21T14:22:40.844Z,8.00
2018-10-21T14:25:08.316Z,11.57
2018-10-21T14:27:36.005Z,8.47
2018-10-21T14:30:04.381Z,12.37
2018-10-21T14:32:31.657Z,8.67
2018-10-21T14:34:59.070Z,9.60
2018-10-21T14:37:26.384Z,8.50
2018-10-21T14:39:53.717Z,10.27
2018-10-21T14:42:21.138Z,13.20
2018-10-21T14:44:48.791Z,9.43
2018-10-21T14:47:16.113Z,6.57
2018-10-21T14:49:43.602Z,8.07
2018-10-21T14:52:10.953Z,8.37
2018-10-21T14:54:38.252Z,8.03
2018-10-21T14:57:05.852Z,10.47
2018-10-21T14:59:33.163Z,9.67
2018-10-21T15:02:00.519Z,8.57
2018-10-21T15:04:27.938Z,12.20
2018-10-21T15:06:55.190Z,12.47
2018-10-21T15:09:22.482Z,10.27
2018-10-21T15:11:50.135Z,10.20
2018-10-21T15:14:17.565Z,10.43
2018-10-21T15:16:44.956Z,13.37
2018-10-21T15:19:12.445Z,13.33
2018-10-21T15:21:39.828Z,12.37
2018-10-21T15:24:07.240Z,7.23
2018-10-21T15:26:34.909Z,14.17
2018-10-21T15:29:02.352Z,12.20
2018-10-21T15:31:29.751Z,10.77
2018-10-21T15:33:57.278Z,14.40
2018-10-21T15:36:24.603Z,11.60
2018-10-21T15:38:51.927Z,13.80
2018-10-21T15:41:19.525Z,16.43
2018-10-21T15:43:46.910Z,15.63
2018-10-21T15:46:14.416Z,14.43
2018-10-21T15:48:41.818Z,22.13
2018-10-21T15:51:09.118Z,15.00
2018-10-21T15:53:36.559Z,16.67
2018-10-21T15:56:04.440Z,14.30
2018-10-21T15:58:31.708Z,11.40
2018-10-21T16:00:58.979Z,14.93
2018-10-21T16:03:27.166Z,19.50
2018-10-21T16:05:54.550Z,15.60
2018-10-21T16:08:21.834Z,13.50
2018-10-21T16:10:49.223Z,19.13
2018-10-21T16:13:16.488Z,13.83
2018-10-21T16:15:43.740Z,15.97
2018-10-21T16:18:11.028Z,20.30
2018-10-21T16:20:38.283Z,12.70
2018-10-21T16:23:05.546Z,14.23
2018-10-21T16:25:33.026Z,19.90
2018-10-21T16:28:00.408Z,19.37
2018-10-21T16:30:27.527Z,21.20
2018-10-21T16:32:55.741Z,17.80
2018-10-21T16:35:22.943Z,25.17
2018-10-21T16:37:50.248Z,19.03
2018-10-21T16:40:17.618Z,23.20
2018-10-21T16:42:44.910Z,17.57
2018-10-21T16:45:13.224Z,19.97
2018-10-21T16:47:40.808Z,18.47
2018-10-21T16:50:13.119Z,23.67
2018-10-21T16:52:41.313Z,19.37
2018-10-21T16:55:09.445Z,29.93
2018-10-21T16:57:37.115Z,24.93
2018-10-21T17:00:06.584Z,23.70
2018-10-21T17:02:33.783Z,21.67
2018-10-21T17:05:01.130Z,19.47
2018-10-21T17:07:28.475Z,25.57
2018-10-21T17:09:57.007Z,26.80
2018-10-21T17:12:24.136Z,28.67
2018-10-21T17:14:51.511Z,24.80
2018-10-21T17:17:18.845Z,30.50
2018-10-21T17:19:46.030Z,30.10
2018-10-21T17:22:13.460Z,31.43
2018-10-21T17:24:40.704Z,31.50
2018-10-21T17:27:07.971Z,32.33
2018-10-21T17:29:35.426Z,32.70
2018-10-21T17:32:02.743Z,41.70
2018-10-21T17:34:30.424Z,33.47
2018-10-21T17:36:57.843Z,29.63
2018-10-21T17:39:25.116Z,32.93
2018-10-21T17:41:52.401Z,40.93
2018-10-21T17:44:19.837Z,34.40
2018-10-21T17:46:47.158Z,43.37
2018-10-21T17:49:14.532Z,39.87
2018-10-21T17:51:41.988Z,41.57
2018-10-21T17:54:09.299Z,43.37
2018-10-21T17:56:42.581Z,40.13
2018-10-21T17:59:09.915Z,39.97
2018-10-21T18:01:37.244Z,44.03
2018-10-21T18:04:04.838Z,47.37
2018-10-21T18:06:32.139Z,45.60
2018-10-21T18:08:59.431Z,46.93
2018-10-21T18:11:26.817Z,46.73
2018-10-21T18:13:54.076Z,49.03
2018-10-21T18:16:21.328Z,45.67
2018-10-21T18:18:48.755Z,52.13
2018-10-21T18:21:16.042Z,46.77
2018-10-21T18:23:43.321Z,52.77
2018-10-21T18:26:10.828Z,54.63
2018-10-21T18:28:38.051Z,52.20
2018-10-21T18:31:05.373Z,56.10
2018-10-21T18:33:32.751Z,56.00
2018-10-21T18:36:00.018Z,58.67
2018-10-21T18:38:27.299Z,58.70
2018-10-21T18:40:54.805Z,58.87
2018-10-21T18:43:22.179Z,59.80
2018-10-21T18:45:49.476Z,64.00
2018-10-21T18:48:16.902Z,60.27
2018-10-21T18:50:45.700Z,58.13
2018-10-21T18:53:15.246Z,62.60
2018-10-21T18:55:43.072Z,66.87
2018-10-21T18:58:12.988Z,67.83
2018-10-21T19:00:40.186Z,62.73
2018-10-21T19:03:07.572Z,65.50
2018-10-21T19:05:34.876Z,66.23
2018-10-21T19:08:02.203Z,70.87
2018-10-21T19:10:29.604Z,68.10
2018-10-21T19:13:00.053Z,75.10
2018-10-21T19:15:24.172Z,67.47
2018-10-21T19:17:51.607Z,74.37
2018-10-21T19:20:18.860Z,73.57
2018-10-21T19:22:46.174Z,75.40
2018-10-21T19:25:14.819Z,77.23
2018-10-21T19:27:42.666Z,77.87
2018-10-21T19:30:10.843Z,74.70
2018-10-21T19:32:38.307Z,76.40
2018-10-21T19:35:06.221Z,75.90
2018-10-21T19:37:33.473Z,76.23
2018-10-21T19:40:00.879Z,75.37
2018-10-21T19:42:28.129Z,76.27
2018-10-21T19:44:55.383Z,76.80
2018-10-21T19:47:22.771Z,71.53
2018-10-21T19:49:50.082Z,78.17
2018-10-21T19:52:17.393Z,80.33
2018-10-21T19:54:44.696Z,79.33
2018-10-21T19:57:11.939Z,77.30
2018-10-21T19:59:39.197Z,81.40
2018-10-21T20:02:06.609Z,83.00
2018-10-21T20:04:33.847Z,87.33
2018-10-21T20:07:01.138Z,85.10
2018-10-21T20:09:28.535Z,75.17
2018-10-21T20:11:55.772Z,83.53
2018-10-21T20:14:23.014Z,77.57
2018-10-21T20:16:50.395Z,81.77
2018-10-21T20:19:17.675Z,86.57
2018-10-21T20:21:44.927Z,85.10
2018-10-21T20:24:12.289Z,83.80
2018-10-21T20:26:39.545Z,83.17
2018-10-21T20:29:06.839Z,91.40
2018-10-21T20:31:34.234Z,82.90
2018-10-21T20:34:01.494Z,80.90
2018-10-21T20:36:28.838Z,77.93
2018-10-21T20:38:56.160Z,75.77
2018-10-21T20:41:23.408Z,75.27
2018-10-21T20:43:50.662Z,72.67
2018-10-21T20:46:18.227Z,79.47
2018-10-21T20:48:45.344Z,79.07
2018-10-21T20:51:12.657Z,73.90
2018-10-21T20:53:39.971Z,82.80
2018-10-21T20:56:07.196Z,67.20
2018-10-21T20:58:34.447Z,73.70
2018-10-21T21:01:01.783Z,76.27
2018-10-21T21:03:29.027Z,72.57
2018-10-21T21:05:56.268Z,70.93
2018-10-21T21:08:23.652Z,70.73
2018-10-21T21:10:50.927Z,69.23
2018-10-21T21:13:18.195Z,68.70
2018-10-21T21:15:45.584Z,68.47
2018-10-21T21:18:12.853Z,72.63
2018-10-21T21:20:40.274Z,75.63
2018-10-21T21:23:07.539Z,74.80
2018-10-21T21:25:34.800Z,71.87
2018-10-21T21:28:02.060Z,77.23
2018-10-21T21:30:29.493Z,73.40
2018-10-21T21:32:56.705Z,79.83
2018-10-21T21:35:23.925Z,77.47
2018-10-21T21:37:51.295Z,81.73
2018-10-21T21:40:18.615Z,86.13
2018-10-21T21:42:45.819Z,94.73
2018-10-21T21:45:13.195Z,91.33
2018-10-21T21:47:40.496Z,94.87
2018-10-21T21:50:08.254Z,100.10
2018-10-21T21:52:35.551Z,97.47
2018-10-21T21:55:02.860Z,94.40
2018-10-21T21:57:30.113Z,92.40
2018-10-21T21:59:57.390Z,85.47
2018-10-21T22:02:24.627Z,90.90
2018-10-21T22:04:51.882Z,98.47
2018-10-21T22:07:19.235Z,92.37
2018-10-21T22:09:46.475Z,84.00
2018-10-21T22:12:13.826Z,101.63
2018-10-21T22:14:41.027Z,95.03
2018-10-21T22:17:08.280Z,93.60
2018-10-21T22:19:35.530Z,93.03
2018-10-21T22:22:02.970Z,92.73
2018-10-21T22:24:30.223Z,94.73
2018-10-21T22:26:57.483Z,94.20
2018-10-21T22:29:24.784Z,90.80
2018-10-21T22:31:52.025Z,97.43
2018-10-21T22:34:19.329Z,91.23
2018-10-21T22:36:46.654Z,89.90
2018-10-21T22:39:13.950Z,92.37
2018-10-21T22:41:41.158Z,92.63
2018-10-21T22:44:08.534Z,91.73
2018-10-21T22:46:35.830Z,88.20
2018-10-21T22:49:03.489Z,87.67
2018-10-21T22:51:30.883Z,88.07
2018-10-21T22:53:58.184Z,85.13
2018-10-21T22:56:25.402Z,86.40
2018-10-21T22:58:52.968Z,85.13
2018-10-21T23:01:20.214Z,88.97
2018-10-21T23:03:47.459Z,84.07
2018-10-21T23:06:14.925Z,93.93
2018-10-21T23:08:42.083Z,92.97
2018-10-21T23:11:09.348Z,92.60
2018-10-21T23:13:36.726Z,91.87
2018-10-21T23:16:04.623Z,100.20
2018-10-21T23:18:31.896Z,101.00
2018-10-21T23:20:59.296Z,93.80
2018-10-21T23:23:26.595Z,112.13
2018-10-21T23:25:53.850Z,93.47
2018-10-21T23:28:21.209Z,97.77
2018-10-21T23:30:48.438Z,101.63
2018-10-21T23:33:15.683Z,87.73
2018-10-21T23:35:43.060Z,94.87
2018-10-21T23:38:10.335Z,95.03
2018-10-21T23:40:37.571Z,89.63
2018-10-21T23:43:04.943Z,90.47
2018-10-21T23:45:32.189Z,93.40
2018-10-21T23:47:59.542Z,90.90
2018-10-21T23:50:26.949Z,92.47
2018-10-21T23:52:54.199Z,83.60
2018-10-21T23:55:21.452Z,86.20
2018-10-21T23:57:48.735Z,93.47
